BCS83C EDDP-EKCH
Flight info
| Callsign | BCS83C |
|---|---|
| Flight time | 0h 49m |
| Altitude | 34000 |
| Route | ODLUN Z207 MAG M736 BUREL/N0429F360 M736 SOGMA M748 ERNUD M726 ROSOK Q296 MONAK |
| Aircraft | A310/H-SDFGHIM1RTUWXY/LB1 |
Departure
| Time | 2026-05-04 17:15 |
|---|---|
| Airport | Leipzig/Halle Airport (EDDP) |
Arrival
| Time | 2026-05-04 18:04 |
|---|---|
| Airport | Copenhagen Kastrup Airport (EKCH) |
| Time | Latitude | Longitude | Altitude | Speed | Heading |
|---|---|---|---|---|---|
| 2026-05-04 16:59 | 51.40841 | 12.23395 | 471 ft | 0 kts | 86° |
| 2026-05-04 17:08 | 51.40838 | 12.23339 | 469 ft | 3 kts | 66° |
| 2026-05-04 17:08 | 51.40826 | 12.23317 | 465 ft | 2 kts | 7° |
| 2026-05-04 17:09 | 51.40818 | 12.23316 | 466 ft | 0 kts | 1° |
| 2026-05-04 17:11 | 51.40967 | 12.23282 | 472 ft | 21 kts | 358° |
| 2026-05-04 17:12 | 51.41037 | 12.23377 | 475 ft | 14 kts | 83° |
| 2026-05-04 17:12 | 51.41058 | 12.23778 | 477 ft | 18 kts | 84° |
| 2026-05-04 17:13 | 51.41084 | 12.24355 | 476 ft | 17 kts | 86° |
| 2026-05-04 17:14 | 51.41214 | 12.24601 | 475 ft | 14 kts | 14° |
| 2026-05-04 17:14 | 51.41299 | 12.24636 | 481 ft | 11 kts | 13° |
| 2026-05-04 17:14 | 51.41335 | 12.24160 | 478 ft | 66 kts | 265° |
| 2026-05-04 17:15 | 51.41282 | 12.23035 | 471 ft | 132 kts | 265° |
| 2026-05-04 17:15 | 51.41111 | 12.19316 | 1120 ft | 185 kts | 266° |
| 2026-05-04 17:16 | 51.41686 | 12.15103 | 2036 ft | 212 kts | 300° |
| 2026-05-04 17:16 | 51.45775 | 12.11274 | 4049 ft | 255 kts | 340° |
| 2026-05-04 17:17 | 51.47441 | 12.10216 | 4923 ft | 264 kts | 337° |
| 2026-05-04 17:17 | 51.52763 | 12.06985 | 7653 ft | 276 kts | 335° |
| 2026-05-04 17:18 | 51.54551 | 12.05796 | 8531 ft | 278 kts | 334° |
| 2026-05-04 17:18 | 51.58161 | 12.03339 | 10138 ft | 287 kts | 333° |
| 2026-05-04 17:19 | 51.62047 | 12.00623 | 10963 ft | 331 kts | 333° |
| 2026-05-04 17:19 | 51.66326 | 11.97600 | 12033 ft | 339 kts | 333° |
| 2026-05-04 17:20 | 51.70686 | 11.94489 | 13747 ft | 348 kts | 333° |
| 2026-05-04 17:20 | 51.75186 | 11.91273 | 15358 ft | 357 kts | 333° |
| 2026-05-04 17:20 | 51.77445 | 11.89652 | 16156 ft | 362 kts | 333° |
| 2026-05-04 17:21 | 51.82122 | 11.86292 | 17530 ft | 371 kts | 333° |
| 2026-05-04 17:21 | 51.87001 | 11.83312 | 18838 ft | 382 kts | 344° |
| 2026-05-04 17:22 | 51.89619 | 11.82527 | 19451 ft | 387 kts | 347° |
| 2026-05-04 17:22 | 51.92309 | 11.81831 | 20095 ft | 391 kts | 347° |
| 2026-05-04 17:23 | 52.00531 | 11.80979 | 22059 ft | 407 kts | 4° |
| 2026-05-04 17:23 | 52.03354 | 11.81615 | 22710 ft | 410 kts | 4° |
| 2026-05-04 17:23 | 52.09074 | 11.82770 | 23951 ft | 417 kts | 2° |
| 2026-05-04 17:24 | 52.11984 | 11.83264 | 24521 ft | 420 kts | 1° |
| 2026-05-04 17:24 | 52.20793 | 11.84679 | 26298 ft | 426 kts | 1° |
| 2026-05-04 17:25 | 52.23718 | 11.85182 | 26899 ft | 425 kts | 1° |
| 2026-05-04 17:25 | 52.29609 | 11.86223 | 28168 ft | 423 kts | 1° |
| 2026-05-04 17:26 | 52.35442 | 11.87183 | 29487 ft | 421 kts | 0° |
| 2026-05-04 17:26 | 52.44334 | 11.88687 | 30743 ft | 434 kts | 0° |
| 2026-05-04 17:27 | 52.50313 | 11.89713 | 31811 ft | 428 kts | 359° |
| 2026-05-04 17:27 | 52.56199 | 11.90686 | 32917 ft | 424 kts | 359° |
| 2026-05-04 17:28 | 52.62028 | 11.91697 | 33808 ft | 425 kts | 359° |
| 2026-05-04 17:29 | 52.71070 | 11.93207 | 33978 ft | 450 kts | 359° |
| 2026-05-04 17:29 | 52.80572 | 11.94791 | 33964 ft | 456 kts | 359° |
| 2026-05-04 17:31 | 52.96340 | 11.97413 | 33956 ft | 456 kts | 359° |
| 2026-05-04 17:32 | 53.12109 | 12.00052 | 33958 ft | 456 kts | 359° |
| 2026-05-04 17:33 | 53.24711 | 12.02176 | 33965 ft | 456 kts | 359° |
| 2026-05-04 17:34 | 53.37370 | 12.04324 | 33964 ft | 456 kts | 359° |
| 2026-05-04 17:35 | 53.53128 | 12.07018 | 33964 ft | 455 kts | 359° |
| 2026-05-04 17:36 | 53.58352 | 12.08516 | 33966 ft | 462 kts | 7° |
| 2026-05-04 17:36 | 53.64608 | 12.11075 | 33982 ft | 461 kts | 5° |
| 2026-05-04 17:37 | 53.70869 | 12.13193 | 33967 ft | 456 kts | 4° |
| 2026-05-04 17:37 | 53.77111 | 12.15256 | 33966 ft | 457 kts | 5° |
| 2026-05-04 17:38 | 53.83346 | 12.17332 | 33973 ft | 457 kts | 4° |
| 2026-05-04 17:38 | 53.89592 | 12.19415 | 33986 ft | 457 kts | 5° |
| 2026-05-04 17:39 | 53.98943 | 12.22557 | 33612 ft | 462 kts | 5° |
| 2026-05-04 17:39 | 54.02099 | 12.23626 | 33081 ft | 464 kts | 5° |
| 2026-05-04 17:39 | 54.05268 | 12.24708 | 32537 ft | 464 kts | 4° |
| 2026-05-04 17:40 | 54.08437 | 12.25766 | 32010 ft | 463 kts | 4° |
| 2026-05-04 17:40 | 54.11601 | 12.26856 | 31493 ft | 463 kts | 4° |
| 2026-05-04 17:40 | 54.14767 | 12.27921 | 31018 ft | 464 kts | 4° |
| 2026-05-04 17:40 | 54.17937 | 12.29002 | 30515 ft | 465 kts | 4° |
| 2026-05-04 17:41 | 54.21077 | 12.30093 | 30024 ft | 467 kts | 4° |
| 2026-05-04 17:41 | 54.24269 | 12.31215 | 29458 ft | 469 kts | 4° |
| 2026-05-04 17:41 | 54.27474 | 12.32338 | 28880 ft | 470 kts | 4° |
| 2026-05-04 17:41 | 54.30684 | 12.33449 | 28330 ft | 471 kts | 4° |
| 2026-05-04 17:42 | 54.33906 | 12.34549 | 27786 ft | 472 kts | 4° |
| 2026-05-04 17:42 | 54.37130 | 12.35634 | 27260 ft | 473 kts | 4° |
| 2026-05-04 17:42 | 54.40364 | 12.36726 | 26784 ft | 474 kts | 4° |
| 2026-05-04 17:42 | 54.43601 | 12.37845 | 26253 ft | 475 kts | 4° |
| 2026-05-04 17:43 | 54.46794 | 12.38958 | 25712 ft | 460 kts | 4° |
| 2026-05-04 17:43 | 54.49886 | 12.40048 | 25190 ft | 446 kts | 4° |
| 2026-05-04 17:43 | 54.52875 | 12.41110 | 24642 ft | 433 kts | 4° |
| 2026-05-04 17:43 | 54.55794 | 12.42106 | 24092 ft | 423 kts | 3° |
| 2026-05-04 17:44 | 54.58650 | 12.43094 | 23544 ft | 414 kts | 4° |
| 2026-05-04 17:44 | 54.61447 | 12.44077 | 22911 ft | 406 kts | 4° |
| 2026-05-04 17:44 | 54.64198 | 12.45002 | 22293 ft | 399 kts | 4° |
| 2026-05-04 17:44 | 54.66906 | 12.45854 | 21655 ft | 392 kts | 4° |
| 2026-05-04 17:45 | 54.69578 | 12.46692 | 21025 ft | 389 kts | 5° |
| 2026-05-04 17:45 | 54.72225 | 12.47548 | 20414 ft | 385 kts | 5° |
| 2026-05-04 17:45 | 54.74839 | 12.48436 | 19822 ft | 381 kts | 6° |
| 2026-05-04 17:45 | 54.77427 | 12.49325 | 19262 ft | 377 kts | 6° |
| 2026-05-04 17:46 | 54.79982 | 12.50192 | 18710 ft | 372 kts | 6° |
| 2026-05-04 17:46 | 54.82515 | 12.51036 | 18153 ft | 368 kts | 6° |
| 2026-05-04 17:46 | 54.85000 | 12.51890 | 17535 ft | 365 kts | 7° |
| 2026-05-04 17:46 | 54.87470 | 12.52772 | 16952 ft | 360 kts | 7° |
| 2026-05-04 17:47 | 54.89916 | 12.53651 | 16389 ft | 356 kts | 6° |
| 2026-05-04 17:47 | 54.92330 | 12.54489 | 15838 ft | 352 kts | 6° |
| 2026-05-04 17:47 | 54.94716 | 12.55343 | 15281 ft | 348 kts | 6° |
| 2026-05-04 17:47 | 54.97078 | 12.56165 | 14740 ft | 344 kts | 6° |
| 2026-05-04 17:48 | 54.99383 | 12.56992 | 14207 ft | 341 kts | 6° |
| 2026-05-04 17:48 | 55.01699 | 12.57802 | 13672 ft | 337 kts | 6° |
| 2026-05-04 17:48 | 55.03987 | 12.58620 | 13084 ft | 334 kts | 6° |
| 2026-05-04 17:48 | 55.06256 | 12.59418 | 12523 ft | 330 kts | 7° |
| 2026-05-04 17:49 | 55.08493 | 12.60212 | 11984 ft | 325 kts | 6° |
| 2026-05-04 17:49 | 55.10699 | 12.60999 | 11451 ft | 322 kts | 7° |
| 2026-05-04 17:49 | 55.12875 | 12.61769 | 10928 ft | 317 kts | 7° |
| 2026-05-04 17:49 | 55.15030 | 12.62534 | 10427 ft | 314 kts | 7° |
| 2026-05-04 17:50 | 55.17120 | 12.63278 | 10018 ft | 307 kts | 7° |
| 2026-05-04 17:50 | 55.19192 | 12.64015 | 9578 ft | 301 kts | 7° |
| 2026-05-04 17:50 | 55.21223 | 12.64739 | 9131 ft | 295 kts | 7° |
| 2026-05-04 17:50 | 55.23212 | 12.65508 | 8684 ft | 292 kts | 11° |
| 2026-05-04 17:51 | 55.25162 | 12.66535 | 8239 ft | 293 kts | 13° |
| 2026-05-04 17:51 | 55.27098 | 12.67638 | 7806 ft | 292 kts | 14° |
| 2026-05-04 17:51 | 55.29024 | 12.68746 | 7383 ft | 291 kts | 14° |
| 2026-05-04 17:51 | 55.30944 | 12.69849 | 7003 ft | 289 kts | 14° |
| 2026-05-04 17:52 | 55.32840 | 12.70932 | 6630 ft | 286 kts | 14° |
| 2026-05-04 17:52 | 55.34716 | 12.72002 | 6361 ft | 279 kts | 14° |
| 2026-05-04 17:52 | 55.36549 | 12.73050 | 6109 ft | 276 kts | 14° |
| 2026-05-04 17:52 | 55.38380 | 12.74093 | 5850 ft | 277 kts | 14° |
| 2026-05-04 17:53 | 55.40206 | 12.75129 | 5646 ft | 275 kts | 14° |
| 2026-05-04 17:53 | 55.42026 | 12.76152 | 5437 ft | 274 kts | 14° |
| 2026-05-04 17:53 | 55.43796 | 12.77146 | 5253 ft | 267 kts | 14° |
| 2026-05-04 17:53 | 55.45536 | 12.78126 | 5107 ft | 257 kts | 14° |
| 2026-05-04 17:54 | 55.47223 | 12.79075 | 4882 ft | 253 kts | 14° |
| 2026-05-04 17:54 | 55.48893 | 12.80010 | 4622 ft | 250 kts | 14° |
| 2026-05-04 17:54 | 55.50540 | 12.80962 | 4347 ft | 248 kts | 15° |
| 2026-05-04 17:54 | 55.52173 | 12.81893 | 4135 ft | 244 kts | 15° |
| 2026-05-04 17:55 | 55.53770 | 12.82818 | 4012 ft | 242 kts | 14° |
| 2026-05-04 17:55 | 55.55349 | 12.83748 | 3976 ft | 235 kts | 17° |
| 2026-05-04 17:55 | 55.56853 | 12.84812 | 3982 ft | 233 kts | 23° |
| 2026-05-04 17:55 | 55.58304 | 12.86161 | 3980 ft | 237 kts | 25° |
| 2026-05-04 17:56 | 55.59749 | 12.87553 | 3979 ft | 236 kts | 25° |
| 2026-05-04 17:56 | 55.61187 | 12.88948 | 3981 ft | 236 kts | 25° |
| 2026-05-04 17:56 | 55.62628 | 12.90344 | 3989 ft | 236 kts | 25° |
| 2026-05-04 17:56 | 55.64065 | 12.91753 | 3984 ft | 236 kts | 25° |
| 2026-05-04 17:57 | 55.65477 | 12.93158 | 3984 ft | 235 kts | 25° |
| 2026-05-04 17:57 | 55.66903 | 12.94576 | 3982 ft | 235 kts | 25° |
| 2026-05-04 17:57 | 55.68337 | 12.95999 | 3982 ft | 236 kts | 25° |
| 2026-05-04 17:57 | 55.69799 | 12.97266 | 3983 ft | 230 kts | 11° |
| 2026-05-04 17:58 | 55.71359 | 12.97833 | 3984 ft | 229 kts | 6° |
| 2026-05-04 17:58 | 55.72926 | 12.98247 | 3975 ft | 229 kts | 356° |
| 2026-05-04 17:58 | 55.74433 | 12.97701 | 3990 ft | 214 kts | 337° |
| 2026-05-04 17:58 | 55.75765 | 12.96817 | 3977 ft | 195 kts | 335° |
| 2026-05-04 17:59 | 55.76856 | 12.95611 | 3989 ft | 181 kts | 304° |
| 2026-05-04 17:59 | 55.77261 | 12.93467 | 3973 ft | 194 kts | 269° |
| 2026-05-04 17:59 | 55.76425 | 12.88799 | 3414 ft | 200 kts | 237° |
| 2026-05-04 18:00 | 55.75532 | 12.86889 | 3164 ft | 203 kts | 227° |
| 2026-05-04 18:00 | 55.74467 | 12.85264 | 3021 ft | 202 kts | 224° |
| 2026-05-04 18:00 | 55.73395 | 12.83614 | 2847 ft | 205 kts | 225° |
| 2026-05-04 18:00 | 55.72333 | 12.81954 | 2496 ft | 202 kts | 225° |
| 2026-05-04 18:01 | 55.71294 | 12.80337 | 2147 ft | 195 kts | 225° |
| 2026-05-04 18:01 | 55.70302 | 12.78803 | 1896 ft | 182 kts | 225° |
| 2026-05-04 18:01 | 55.69404 | 12.77408 | 1889 ft | 168 kts | 224° |
| 2026-05-04 18:02 | 55.67690 | 12.74746 | 1370 ft | 159 kts | 225° |
| 2026-05-04 18:02 | 55.66878 | 12.73485 | 1120 ft | 151 kts | 225° |
| 2026-05-04 18:02 | 55.66105 | 12.72298 | 957 ft | 143 kts | 225° |
| 2026-05-04 18:02 | 55.65372 | 12.71156 | 724 ft | 138 kts | 226° |
| 2026-05-04 18:03 | 55.64657 | 12.70050 | 563 ft | 137 kts | 224° |
| 2026-05-04 18:03 | 55.63942 | 12.68935 | 395 ft | 137 kts | 226° |
| 2026-05-04 18:03 | 55.63233 | 12.67832 | 229 ft | 136 kts | 224° |
| 2026-05-04 18:03 | 55.62505 | 12.66710 | 60 ft | 139 kts | 225° |
| 2026-05-04 18:04 | 55.61819 | 12.65630 | 27 ft | 116 kts | 221° |
| 2026-05-04 18:04 | 55.61367 | 12.64928 | 28 ft | 56 kts | 228° |
| 2026-05-04 18:04 | 55.61201 | 12.64339 | 26 ft | 16 kts | 251° |
| 2026-05-04 18:05 | 55.61191 | 12.64165 | 21 ft | 12 kts | 294° |
| 2026-05-04 18:05 | 55.61254 | 12.64109 | 24 ft | 12 kts | 1° |
| 2026-05-04 18:05 | 55.61327 | 12.64169 | 25 ft | 12 kts | 32° |
| 2026-05-04 18:05 | 55.61400 | 12.64251 | 24 ft | 13 kts | 32° |
| 2026-05-04 18:06 | 55.61542 | 12.64416 | 29 ft | 13 kts | 32° |
| 2026-05-04 18:06 | 55.61619 | 12.64501 | 29 ft | 13 kts | 33° |
| 2026-05-04 18:06 | 55.61695 | 12.64589 | 29 ft | 15 kts | 33° |
| 2026-05-04 18:07 | 55.61792 | 12.64701 | 28 ft | 17 kts | 33° |
| 2026-05-04 18:07 | 55.61892 | 12.64817 | 24 ft | 15 kts | 33° |
| 2026-05-04 18:07 | 55.61937 | 12.64868 | 23 ft | 3 kts | 33° |
| 2026-05-04 18:07 | 55.61978 | 12.64914 | 27 ft | 9 kts | 33° |
| 2026-05-04 18:08 | 55.62008 | 12.65023 | 29 ft | 18 kts | 118° |
| 2026-05-04 18:08 | 55.61915 | 12.65270 | 23 ft | 25 kts | 123° |
| 2026-05-04 18:08 | 55.61857 | 12.65427 | 25 ft | 12 kts | 123° |
| 2026-05-04 18:08 | 55.61855 | 12.65434 | 25 ft | 0 kts | 123° |
| 2026-05-04 18:09 | 55.61768 | 12.65667 | 25 ft | 24 kts | 122° |
| 2026-05-04 18:09 | 55.61659 | 12.65968 | 28 ft | 4 kts | 118° |
| 2026-05-04 18:10 | 55.61647 | 12.66022 | 29 ft | 5 kts | 106° |
| 2026-05-04 18:10 | 55.61632 | 12.66082 | 29 ft | 7 kts | 132° |
| 2026-05-04 18:10 | 55.61564 | 12.66228 | 29 ft | 20 kts | 126° |
| 2026-05-04 18:10 | 55.61486 | 12.66434 | 28 ft | 20 kts | 123° |
| 2026-05-04 18:11 | 55.61407 | 12.66648 | 28 ft | 20 kts | 123° |
| 2026-05-04 18:11 | 55.61330 | 12.66855 | 28 ft | 20 kts | 123° |
| 2026-05-04 18:11 | 55.61282 | 12.67054 | 26 ft | 14 kts | 65° |
| 2026-05-04 18:11 | 55.61371 | 12.67133 | 27 ft | 16 kts | 12° |
| 2026-05-04 18:12 | 55.61485 | 12.67110 | 22 ft | 18 kts | 350° |
| 2026-05-04 18:12 | 55.61603 | 12.67070 | 23 ft | 17 kts | 349° |
| 2026-05-04 18:12 | 55.61724 | 12.67028 | 23 ft | 18 kts | 348° |
| 2026-05-04 18:12 | 55.61831 | 12.66991 | 24 ft | 14 kts | 353° |
| 2026-05-04 18:13 | 55.61892 | 12.67084 | 22 ft | 9 kts | 77° |
| 2026-05-04 18:13 | 55.61896 | 12.67131 | 23 ft | 0 kts | 79° |